sensor_id;sensor_type;location;lat;lon;timestamp;P1;durP1;ratioP1;P2;durP2;ratioP2
71360;SDS011;59166;48.908;1.870;2022-10-19T00:04:11;19.07;;;9.40;;
71360;SDS011;59166;48.908;1.870;2022-10-19T00:09:14;16.10;;;7.47;;
71360;SDS011;59166;48.908;1.870;2022-10-19T00:14:17;18.70;;;9.45;;
71360;SDS011;59166;48.908;1.870;2022-10-19T00:19:20;21.33;;;9.43;;
71360;SDS011;59166;48.908;1.870;2022-10-19T00:24:25;19.00;;;7.32;;
71360;SDS011;59166;48.908;1.870;2022-10-19T00:29:26;18.17;;;6.97;;
71360;SDS011;59166;48.908;1.870;2022-10-19T00:34:27;21.77;;;9.63;;
71360;SDS011;59166;48.908;1.870;2022-10-19T00:39:29;21.40;;;9.88;;
71360;SDS011;59166;48.908;1.870;2022-10-19T00:50:10;20.98;;;9.88;;
71360;SDS011;59166;48.908;1.870;2022-10-19T00:55:15;18.33;;;8.35;;
71360;SDS011;59166;48.908;1.870;2022-10-19T01:00:16;19.10;;;8.33;;
71360;SDS011;59166;48.908;1.870;2022-10-19T01:05:17;20.07;;;8.70;;
71360;SDS011;59166;48.908;1.870;2022-10-19T01:10:23;20.42;;;9.55;;
71360;SDS011;59166;48.908;1.870;2022-10-19T01:15:31;19.00;;;7.93;;
71360;SDS011;59166;48.908;1.870;2022-10-19T01:21:00;19.37;;;7.93;;
71360;SDS011;59166;48.908;1.870;2022-10-19T01:26:17;19.80;;;9.40;;
71360;SDS011;59166;48.908;1.870;2022-10-19T01:31:56;21.23;;;9.90;;
71360;SDS011;59166;48.908;1.870;2022-10-19T01:37:05;23.03;;;10.50;;
71360;SDS011;59166;48.908;1.870;2022-10-19T01:42:14;20.45;;;9.00;;
71360;SDS011;59166;48.908;1.870;2022-10-19T01:47:25;20.88;;;9.25;;
71360;SDS011;59166;48.908;1.870;2022-10-19T01:52:47;19.97;;;9.60;;
71360;SDS011;59166;48.908;1.870;2022-10-19T01:57:52;20.08;;;8.52;;
71360;SDS011;59166;48.908;1.870;2022-10-19T02:02:57;19.98;;;9.73;;
71360;SDS011;59166;48.908;1.870;2022-10-19T02:08:01;19.57;;;9.30;;
71360;SDS011;59166;48.908;1.870;2022-10-19T02:13:11;21.23;;;9.43;;
71360;SDS011;59166;48.908;1.870;2022-10-19T02:18:16;16.80;;;9.13;;
71360;SDS011;59166;48.908;1.870;2022-10-19T02:23:23;19.13;;;9.60;;
71360;SDS011;59166;48.908;1.870;2022-10-19T02:28:25;19.37;;;9.20;;
71360;SDS011;59166;48.908;1.870;2022-10-19T02:33:31;19.45;;;9.80;;
71360;SDS011;59166;48.908;1.870;2022-10-19T02:38:32;18.02;;;9.73;;
71360;SDS011;59166;48.908;1.870;2022-10-19T02:43:36;18.17;;;10.00;;
71360;SDS011;59166;48.908;1.870;2022-10-19T02:48:40;22.23;;;10.10;;
71360;SDS011;59166;48.908;1.870;2022-10-19T02:53:42;20.30;;;10.02;;
71360;SDS011;59166;48.908;1.870;2022-10-19T02:58:43;18.80;;;9.50;;
71360;SDS011;59166;48.908;1.870;2022-10-19T03:03:45;22.85;;;10.63;;
71360;SDS011;59166;48.908;1.870;2022-10-19T03:08:46;16.90;;;8.82;;
71360;SDS011;59166;48.908;1.870;2022-10-19T03:13:47;18.17;;;9.57;;
71360;SDS011;59166;48.908;1.870;2022-10-19T03:18:50;20.33;;;10.10;;
71360;SDS011;59166;48.908;1.870;2022-10-19T03:23:51;20.73;;;9.43;;
71360;SDS011;59166;48.908;1.870;2022-10-19T03:28:52;21.00;;;10.10;;
71360;SDS011;59166;48.908;1.870;2022-10-19T03:33:54;20.67;;;9.03;;
71360;SDS011;59166;48.908;1.870;2022-10-19T03:38:56;20.37;;;10.07;;
71360;SDS011;59166;48.908;1.870;2022-10-19T03:43:58;20.00;;;10.00;;
71360;SDS011;59166;48.908;1.870;2022-10-19T03:49:00;20.08;;;9.73;;
71360;SDS011;59166;48.908;1.870;2022-10-19T03:54:02;22.43;;;10.03;;
71360;SDS011;59166;48.908;1.870;2022-10-19T03:59:05;21.52;;;9.88;;
71360;SDS011;59166;48.908;1.870;2022-10-19T04:04:08;22.05;;;9.73;;
71360;SDS011;59166;48.908;1.870;2022-10-19T04:09:30;21.80;;;9.83;;
71360;SDS011;59166;48.908;1.870;2022-10-19T04:14:30;20.70;;;9.63;;
71360;SDS011;59166;48.908;1.870;2022-10-19T04:19:33;20.73;;;9.18;;
71360;SDS011;59166;48.908;1.870;2022-10-19T04:24:34;19.17;;;9.20;;
71360;SDS011;59166;48.908;1.870;2022-10-19T04:29:35;19.25;;;8.80;;
71360;SDS011;59166;48.908;1.870;2022-10-19T04:34:37;19.33;;;9.18;;
71360;SDS011;59166;48.908;1.870;2022-10-19T04:39:38;21.20;;;9.33;;
71360;SDS011;59166;48.908;1.870;2022-10-19T04:44:39;19.35;;;8.70;;
71360;SDS011;59166;48.908;1.870;2022-10-19T04:49:41;20.27;;;8.27;;
71360;SDS011;59166;48.908;1.870;2022-10-19T04:54:42;19.25;;;7.65;;
71360;SDS011;59166;48.908;1.870;2022-10-19T04:59:43;19.20;;;8.52;;
71360;SDS011;59166;48.908;1.870;2022-10-19T05:04:46;20.23;;;9.00;;
71360;SDS011;59166;48.908;1.870;2022-10-19T05:09:47;20.17;;;8.63;;
71360;SDS011;59166;48.908;1.870;2022-10-19T05:14:48;20.83;;;9.27;;
71360;SDS011;59166;48.908;1.870;2022-10-19T05:19:50;21.48;;;10.05;;
71360;SDS011;59166;48.908;1.870;2022-10-19T05:24:51;21.10;;;9.75;;
71360;SDS011;59166;48.908;1.870;2022-10-19T05:29:52;22.10;;;9.40;;
71360;SDS011;59166;48.908;1.870;2022-10-19T05:34:54;20.08;;;9.52;;
71360;SDS011;59166;48.908;1.870;2022-10-19T05:39:55;19.17;;;7.40;;
71360;SDS011;59166;48.908;1.870;2022-10-19T05:44:56;21.70;;;9.70;;
71360;SDS011;59166;48.908;1.870;2022-10-19T05:49:58;17.85;;;8.90;;
71360;SDS011;59166;48.908;1.870;2022-10-19T05:54:59;20.07;;;9.27;;
71360;SDS011;59166;48.908;1.870;2022-10-19T06:00:00;20.93;;;9.67;;
71360;SDS011;59166;48.908;1.870;2022-10-19T06:05:03;21.42;;;9.98;;
71360;SDS011;59166;48.908;1.870;2022-10-19T06:10:05;20.57;;;9.57;;
71360;SDS011;59166;48.908;1.870;2022-10-19T06:15:06;21.00;;;10.20;;
71360;SDS011;59166;48.908;1.870;2022-10-19T06:20:10;22.60;;;9.70;;
71360;SDS011;59166;48.908;1.870;2022-10-19T06:25:13;20.20;;;9.10;;
71360;SDS011;59166;48.908;1.870;2022-10-19T06:30:14;21.40;;;10.30;;
71360;SDS011;59166;48.908;1.870;2022-10-19T06:35:16;21.17;;;10.00;;
71360;SDS011;59166;48.908;1.870;2022-10-19T06:40:18;20.33;;;9.03;;
71360;SDS011;59166;48.908;1.870;2022-10-19T06:45:19;17.33;;;7.72;;
71360;SDS011;59166;48.908;1.870;2022-10-19T06:50:21;22.13;;;9.77;;
71360;SDS011;59166;48.908;1.870;2022-10-19T06:55:22;23.33;;;11.40;;
71360;SDS011;59166;48.908;1.870;2022-10-19T07:00:23;21.40;;;10.35;;
71360;SDS011;59166;48.908;1.870;2022-10-19T07:05:25;20.93;;;9.77;;
71360;SDS011;59166;48.908;1.870;2022-10-19T07:10:26;23.85;;;10.98;;
71360;SDS011;59166;48.908;1.870;2022-10-19T07:15:27;23.35;;;10.80;;
71360;SDS011;59166;48.908;1.870;2022-10-19T07:20:29;22.23;;;10.70;;
71360;SDS011;59166;48.908;1.870;2022-10-19T07:25:30;22.02;;;9.95;;
71360;SDS011;59166;48.908;1.870;2022-10-19T07:30:31;17.27;;;8.17;;
71360;SDS011;59166;48.908;1.870;2022-10-19T07:35:33;21.67;;;10.50;;
71360;SDS011;59166;48.908;1.870;2022-10-19T07:40:34;23.43;;;10.23;;
71360;SDS011;59166;48.908;1.870;2022-10-19T07:45:35;21.00;;;10.50;;
71360;SDS011;59166;48.908;1.870;2022-10-19T07:50:37;20.35;;;9.07;;
71360;SDS011;59166;48.908;1.870;2022-10-19T07:55:38;16.77;;;8.80;;
71360;SDS011;59166;48.908;1.870;2022-10-19T08:00:39;16.88;;;7.03;;
71360;SDS011;59166;48.908;1.870;2022-10-19T08:05:41;16.83;;;8.37;;
71360;SDS011;59166;48.908;1.870;2022-10-19T08:10:42;21.13;;;8.68;;
71360;SDS011;59166;48.908;1.870;2022-10-19T08:15:43;18.07;;;9.00;;
71360;SDS011;59166;48.908;1.870;2022-10-19T08:20:45;18.00;;;9.60;;
71360;SDS011;59166;48.908;1.870;2022-10-19T08:25:46;21.25;;;9.45;;
71360;SDS011;59166;48.908;1.870;2022-10-19T08:30:47;18.47;;;9.43;;
71360;SDS011;59166;48.908;1.870;2022-10-19T08:35:52;17.17;;;8.93;;
71360;SDS011;59166;48.908;1.870;2022-10-19T08:40:56;18.90;;;9.30;;
71360;SDS011;59166;48.908;1.870;2022-10-19T08:46:05;17.73;;;8.87;;
71360;SDS011;59166;48.908;1.870;2022-10-19T08:51:18;17.90;;;9.10;;
71360;SDS011;59166;48.908;1.870;2022-10-19T08:56:22;17.00;;;8.80;;
71360;SDS011;59166;48.908;1.870;2022-10-19T09:01:31;17.92;;;7.95;;
71360;SDS011;59166;48.908;1.870;2022-10-19T09:06:39;15.43;;;7.27;;
71360;SDS011;59166;48.908;1.870;2022-10-19T09:12:22;17.33;;;8.45;;
71360;SDS011;59166;48.908;1.870;2022-10-19T09:17:31;16.73;;;7.00;;
71360;SDS011;59166;48.908;1.870;2022-10-19T09:22:35;16.83;;;7.93;;
71360;SDS011;59166;48.908;1.870;2022-10-19T09:27:41;14.98;;;7.10;;
71360;SDS011;59166;48.908;1.870;2022-10-19T09:32:46;14.48;;;7.43;;
71360;SDS011;59166;48.908;1.870;2022-10-19T09:37:52;15.37;;;6.60;;
71360;SDS011;59166;48.908;1.870;2022-10-19T09:42:53;14.77;;;6.73;;
71360;SDS011;59166;48.908;1.870;2022-10-19T09:47:55;13.30;;;6.75;;
71360;SDS011;59166;48.908;1.870;2022-10-19T09:52:58;13.43;;;6.68;;
71360;SDS011;59166;48.908;1.870;2022-10-19T09:58:20;12.23;;;6.47;;
71360;SDS011;59166;48.908;1.870;2022-10-19T10:03:26;16.23;;;6.85;;
71360;SDS011;59166;48.908;1.870;2022-10-19T10:08:32;16.35;;;6.60;;
71360;SDS011;59166;48.908;1.870;2022-10-19T10:13:36;16.20;;;6.13;;
71360;SDS011;59166;48.908;1.870;2022-10-19T10:18:43;17.30;;;6.65;;
71360;SDS011;59166;48.908;1.870;2022-10-19T10:24:04;11.93;;;5.72;;
71360;SDS011;59166;48.908;1.870;2022-10-19T10:29:16;13.53;;;5.40;;
71360;SDS011;59166;48.908;1.870;2022-10-19T10:34:28;11.30;;;6.20;;
71360;SDS011;59166;48.908;1.870;2022-10-19T10:39:48;11.98;;;5.35;;
71360;SDS011;59166;48.908;1.870;2022-10-19T10:44:55;12.20;;;5.50;;
71360;SDS011;59166;48.908;1.870;2022-10-19T10:50:00;13.20;;;5.00;;
71360;SDS011;59166;48.908;1.870;2022-10-19T10:55:16;13.20;;;5.30;;
71360;SDS011;59166;48.908;1.870;2022-10-19T11:00:24;10.02;;;4.88;;
71360;SDS011;59166;48.908;1.870;2022-10-19T11:05:30;13.00;;;4.90;;
71360;SDS011;59166;48.908;1.870;2022-10-19T11:10:36;9.90;;;5.07;;
71360;SDS011;59166;48.908;1.870;2022-10-19T11:15:54;12.55;;;5.53;;
71360;SDS011;59166;48.908;1.870;2022-10-19T11:26:34;11.57;;;5.07;;
71360;SDS011;59166;48.908;1.870;2022-10-19T11:31:50;15.65;;;5.43;;
71360;SDS011;59166;48.908;1.870;2022-10-19T11:37:21;11.68;;;4.90;;
71360;SDS011;59166;48.908;1.870;2022-10-19T11:42:32;11.63;;;5.10;;
71360;SDS011;59166;48.908;1.870;2022-10-19T11:48:02;10.50;;;5.03;;
71360;SDS011;59166;48.908;1.870;2022-10-19T11:53:18;10.95;;;4.93;;
71360;SDS011;59166;48.908;1.870;2022-10-19T11:58:49;10.10;;;4.97;;
71360;SDS011;59166;48.908;1.870;2022-10-19T12:04:02;14.23;;;4.95;;
71360;SDS011;59166;48.908;1.870;2022-10-19T12:09:21;13.45;;;5.35;;
71360;SDS011;59166;48.908;1.870;2022-10-19T12:14:31;9.57;;;4.60;;
71360;SDS011;59166;48.908;1.870;2022-10-19T12:19:37;10.03;;;4.63;;
71360;SDS011;59166;48.908;1.870;2022-10-19T12:24:41;12.35;;;5.07;;
71360;SDS011;59166;48.908;1.870;2022-10-19T12:29:44;13.32;;;4.80;;
71360;SDS011;59166;48.908;1.870;2022-10-19T12:34:49;11.60;;;4.63;;
71360;SDS011;59166;48.908;1.870;2022-10-19T12:39:56;10.90;;;4.70;;
71360;SDS011;59166;48.908;1.870;2022-10-19T12:45:09;10.02;;;4.28;;
71360;SDS011;59166;48.908;1.870;2022-10-19T12:56:01;11.85;;;4.70;;
71360;SDS011;59166;48.908;1.870;2022-10-19T13:01:06;11.27;;;4.60;;
71360;SDS011;59166;48.908;1.870;2022-10-19T13:06:12;11.60;;;4.40;;
71360;SDS011;59166;48.908;1.870;2022-10-19T13:11:18;11.00;;;4.60;;
71360;SDS011;59166;48.908;1.870;2022-10-19T13:16:41;10.65;;;4.50;;
71360;SDS011;59166;48.908;1.870;2022-10-19T13:27:26;12.57;;;4.27;;
71360;SDS011;59166;48.908;1.870;2022-10-19T13:32:41;10.15;;;4.60;;
71360;SDS011;59166;48.908;1.870;2022-10-19T13:37:43;13.85;;;4.15;;
71360;SDS011;59166;48.908;1.870;2022-10-19T13:42:44;11.17;;;4.20;;
71360;SDS011;59166;48.908;1.870;2022-10-19T13:47:47;10.25;;;4.30;;
71360;SDS011;59166;48.908;1.870;2022-10-19T13:58:33;9.97;;;4.37;;
71360;SDS011;59166;48.908;1.870;2022-10-19T14:04:02;9.65;;;4.10;;
71360;SDS011;59166;48.908;1.870;2022-10-19T14:15:19;10.13;;;4.60;;
71360;SDS011;59166;48.908;1.870;2022-10-19T14:20:26;13.63;;;4.43;;
71360;SDS011;59166;48.908;1.870;2022-10-19T14:25:29;13.18;;;4.60;;
71360;SDS011;59166;48.908;1.870;2022-10-19T14:30:30;9.63;;;4.60;;
71360;SDS011;59166;48.908;1.870;2022-10-19T14:35:36;10.98;;;4.35;;
71360;SDS011;59166;48.908;1.870;2022-10-19T14:40:39;10.13;;;4.43;;
71360;SDS011;59166;48.908;1.870;2022-10-19T14:45:41;11.70;;;4.67;;
71360;SDS011;59166;48.908;1.870;2022-10-19T14:50:44;9.93;;;4.53;;
71360;SDS011;59166;48.908;1.870;2022-10-19T14:55:49;10.68;;;4.43;;
71360;SDS011;59166;48.908;1.870;2022-10-19T15:00:53;10.30;;;4.17;;
71360;SDS011;59166;48.908;1.870;2022-10-19T15:05:57;10.43;;;4.20;;
71360;SDS011;59166;48.908;1.870;2022-10-19T15:11:01;11.32;;;4.22;;
71360;SDS011;59166;48.908;1.870;2022-10-19T15:16:03;9.37;;;4.37;;
71360;SDS011;59166;48.908;1.870;2022-10-19T15:21:11;12.33;;;4.60;;
71360;SDS011;59166;48.908;1.870;2022-10-19T15:26:16;11.07;;;4.10;;
71360;SDS011;59166;48.908;1.870;2022-10-19T15:31:20;11.13;;;4.75;;
71360;SDS011;59166;48.908;1.870;2022-10-19T15:36:29;10.83;;;4.30;;
71360;SDS011;59166;48.908;1.870;2022-10-19T15:41:31;10.95;;;4.00;;
71360;SDS011;59166;48.908;1.870;2022-10-19T15:52:21;14.27;;;5.03;;
71360;SDS011;59166;48.908;1.870;2022-10-19T15:57:25;10.88;;;4.72;;
71360;SDS011;59166;48.908;1.870;2022-10-19T16:02:31;11.27;;;4.93;;
71360;SDS011;59166;48.908;1.870;2022-10-19T16:07:35;10.30;;;4.93;;
71360;SDS011;59166;48.908;1.870;2022-10-19T16:12:38;11.43;;;4.30;;
71360;SDS011;59166;48.908;1.870;2022-10-19T16:17:39;13.50;;;4.88;;
71360;SDS011;59166;48.908;1.870;2022-10-19T16:22:49;10.27;;;4.40;;
71360;SDS011;59166;48.908;1.870;2022-10-19T16:27:51;10.87;;;4.63;;
71360;SDS011;59166;48.908;1.870;2022-10-19T16:32:52;11.43;;;4.75;;
71360;SDS011;59166;48.908;1.870;2022-10-19T16:37:55;11.38;;;5.10;;
71360;SDS011;59166;48.908;1.870;2022-10-19T16:42:56;12.03;;;4.57;;
71360;SDS011;59166;48.908;1.870;2022-10-19T16:47:58;12.80;;;4.68;;
71360;SDS011;59166;48.908;1.870;2022-10-19T16:53:03;13.52;;;4.90;;
71360;SDS011;59166;48.908;1.870;2022-10-19T16:58:06;9.17;;;4.20;;
71360;SDS011;59166;48.908;1.870;2022-10-19T17:03:16;8.50;;;4.40;;
71360;SDS011;59166;48.908;1.870;2022-10-19T17:08:21;12.02;;;5.15;;
71360;SDS011;59166;48.908;1.870;2022-10-19T17:13:25;11.05;;;4.88;;
71360;SDS011;59166;48.908;1.870;2022-10-19T17:18:28;11.90;;;4.80;;
71360;SDS011;59166;48.908;1.870;2022-10-19T17:23:33;13.65;;;5.07;;
71360;SDS011;59166;48.908;1.870;2022-10-19T17:28:45;13.00;;;5.35;;
71360;SDS011;59166;48.908;1.870;2022-10-19T17:33:52;11.13;;;5.17;;
71360;SDS011;59166;48.908;1.870;2022-10-19T17:39:03;11.40;;;5.07;;
71360;SDS011;59166;48.908;1.870;2022-10-19T17:44:09;11.90;;;5.30;;
71360;SDS011;59166;48.908;1.870;2022-10-19T17:49:20;15.20;;;5.53;;
71360;SDS011;59166;48.908;1.870;2022-10-19T17:54:22;10.97;;;5.30;;
71360;SDS011;59166;48.908;1.870;2022-10-19T17:59:23;15.90;;;6.60;;
71360;SDS011;59166;48.908;1.870;2022-10-19T18:04:25;13.35;;;5.88;;
71360;SDS011;59166;48.908;1.870;2022-10-19T18:09:27;12.37;;;5.90;;
71360;SDS011;59166;48.908;1.870;2022-10-19T18:14:28;15.20;;;6.30;;
71360;SDS011;59166;48.908;1.870;2022-10-19T18:19:29;14.40;;;6.40;;
71360;SDS011;59166;48.908;1.870;2022-10-19T18:24:35;12.07;;;5.93;;
71360;SDS011;59166;48.908;1.870;2022-10-19T18:29:47;14.77;;;6.72;;
71360;SDS011;59166;48.908;1.870;2022-10-19T18:34:57;14.13;;;6.38;;
71360;SDS011;59166;48.908;1.870;2022-10-19T18:40:00;13.90;;;6.73;;
71360;SDS011;59166;48.908;1.870;2022-10-19T18:45:01;15.55;;;6.60;;
71360;SDS011;59166;48.908;1.870;2022-10-19T18:50:09;16.60;;;6.57;;
71360;SDS011;59166;48.908;1.870;2022-10-19T18:55:12;14.13;;;6.37;;
71360;SDS011;59166;48.908;1.870;2022-10-19T19:00:13;13.07;;;6.72;;
71360;SDS011;59166;48.908;1.870;2022-10-19T19:05:14;14.05;;;6.85;;
71360;SDS011;59166;48.908;1.870;2022-10-19T19:10:17;14.70;;;6.50;;
71360;SDS011;59166;48.908;1.870;2022-10-19T19:15:18;13.73;;;6.40;;
71360;SDS011;59166;48.908;1.870;2022-10-19T19:20:20;13.23;;;6.65;;
71360;SDS011;59166;48.908;1.870;2022-10-19T19:25:25;13.00;;;6.50;;
71360;SDS011;59166;48.908;1.870;2022-10-19T19:30:26;14.63;;;6.67;;
71360;SDS011;59166;48.908;1.870;2022-10-19T19:35:28;14.10;;;6.85;;
71360;SDS011;59166;48.908;1.870;2022-10-19T19:40:33;14.07;;;6.93;;
71360;SDS011;59166;48.908;1.870;2022-10-19T19:45:37;16.50;;;7.00;;
71360;SDS011;59166;48.908;1.870;2022-10-19T19:50:39;14.80;;;6.78;;
71360;SDS011;59166;48.908;1.870;2022-10-19T19:55:48;13.13;;;6.88;;
71360;SDS011;59166;48.908;1.870;2022-10-19T20:00:49;16.83;;;7.13;;
71360;SDS011;59166;48.908;1.870;2022-10-19T20:05:50;15.15;;;6.80;;
71360;SDS011;59166;48.908;1.870;2022-10-19T20:10:53;14.90;;;6.97;;
71360;SDS011;59166;48.908;1.870;2022-10-19T20:15:56;14.83;;;7.07;;
71360;SDS011;59166;48.908;1.870;2022-10-19T20:20:59;14.82;;;6.82;;
71360;SDS011;59166;48.908;1.870;2022-10-19T20:26:21;15.80;;;7.30;;
71360;SDS011;59166;48.908;1.870;2022-10-19T20:31:31;13.40;;;6.73;;
71360;SDS011;59166;48.908;1.870;2022-10-19T20:36:37;15.13;;;7.15;;
71360;SDS011;59166;48.908;1.870;2022-10-19T20:41:57;15.60;;;7.38;;
71360;SDS011;59166;48.908;1.870;2022-10-19T20:46:58;14.73;;;7.50;;
71360;SDS011;59166;48.908;1.870;2022-10-19T20:51:59;14.03;;;7.37;;
71360;SDS011;59166;48.908;1.870;2022-10-19T20:57:01;16.75;;;7.15;;
71360;SDS011;59166;48.908;1.870;2022-10-19T21:02:02;14.53;;;7.37;;
71360;SDS011;59166;48.908;1.870;2022-10-19T21:07:04;16.63;;;8.10;;
71360;SDS011;59166;48.908;1.870;2022-10-19T21:12:08;15.25;;;7.63;;
71360;SDS011;59166;48.908;1.870;2022-10-19T21:17:09;16.40;;;7.30;;
71360;SDS011;59166;48.908;1.870;2022-10-19T21:22:13;14.05;;;6.95;;
71360;SDS011;59166;48.908;1.870;2022-10-19T21:27:16;14.38;;;6.97;;
71360;SDS011;59166;48.908;1.870;2022-10-19T21:32:17;13.93;;;6.63;;
71360;SDS011;59166;48.908;1.870;2022-10-19T21:37:18;13.57;;;6.77;;
71360;SDS011;59166;48.908;1.870;2022-10-19T21:42:23;13.50;;;6.53;;
71360;SDS011;59166;48.908;1.870;2022-10-19T21:47:24;13.55;;;6.80;;
71360;SDS011;59166;48.908;1.870;2022-10-19T21:52:28;14.33;;;6.30;;
71360;SDS011;59166;48.908;1.870;2022-10-19T21:57:33;15.43;;;7.00;;
71360;SDS011;59166;48.908;1.870;2022-10-19T22:02:34;13.40;;;6.82;;
71360;SDS011;59166;48.908;1.870;2022-10-19T22:07:36;13.03;;;6.83;;
71360;SDS011;59166;48.908;1.870;2022-10-19T22:12:39;13.57;;;7.03;;
71360;SDS011;59166;48.908;1.870;2022-10-19T22:17:42;15.45;;;7.22;;
71360;SDS011;59166;48.908;1.870;2022-10-19T22:22:43;15.80;;;7.07;;
71360;SDS011;59166;48.908;1.870;2022-10-19T22:27:46;13.93;;;6.72;;
71360;SDS011;59166;48.908;1.870;2022-10-19T22:32:50;15.48;;;7.40;;
71360;SDS011;59166;48.908;1.870;2022-10-19T22:37:52;15.40;;;7.00;;
71360;SDS011;59166;48.908;1.870;2022-10-19T22:48:32;17.13;;;7.90;;
71360;SDS011;59166;48.908;1.870;2022-10-19T22:53:33;15.32;;;7.30;;
71360;SDS011;59166;48.908;1.870;2022-10-19T22:58:34;15.90;;;7.20;;
71360;SDS011;59166;48.908;1.870;2022-10-19T23:03:37;16.35;;;7.60;;
71360;SDS011;59166;48.908;1.870;2022-10-19T23:08:39;17.37;;;7.40;;
71360;SDS011;59166;48.908;1.870;2022-10-19T23:13:40;17.10;;;7.47;;
71360;SDS011;59166;48.908;1.870;2022-10-19T23:18:43;16.67;;;7.40;;
71360;SDS011;59166;48.908;1.870;2022-10-19T23:23:43;14.35;;;6.95;;
71360;SDS011;59166;48.908;1.870;2022-10-19T23:28:45;19.90;;;7.07;;
71360;SDS011;59166;48.908;1.870;2022-10-19T23:33:49;15.35;;;7.22;;
71360;SDS011;59166;48.908;1.870;2022-10-19T23:38:51;14.80;;;7.18;;
71360;SDS011;59166;48.908;1.870;2022-10-19T23:43:53;14.97;;;7.63;;
71360;SDS011;59166;48.908;1.870;2022-10-19T23:48:55;18.70;;;8.25;;
71360;SDS011;59166;48.908;1.870;2022-10-19T23:53:56;16.25;;;7.95;;
71360;SDS011;59166;48.908;1.870;2022-10-19T23:58:57;18.00;;;7.93;;
